Terminal Aerodrome Forecast
Issued by NWS

Home | Current Version | Previous Version | Text Only | Print | Product List | Glossary On
Versions: 1 2 3 4 5 6 7 8 9 10 11 12 13 14 15 16 17
000
FTUS45 KRIW 291550 AAA
TAFCPR
TAF AMD
KCPR 291550Z 2916/3012 08010KT P6SM SCT012 OVC040
     FM300000 08011KT P6SM VCSH SCT015 OVC024
     FM301000 08011KT 2SM -SN OVC014=

USA.gov is the U.S. government's official web portal to all federal, state and local government web resources and services.